Nearby METAR Reports

 

KPLU - Puyallup/Thun, Washington, USA
Distance from station: SSW 10mi, 16km
Updated: Sun, 18-Apr-2021 9:55pm PDT
Clear
Clear
 Wind from calm
Wind: Calm
Temperature: 55°F , 13°C
Dew Point: 28°F , -2°C
Humidity: 36%
Barometer: 30.14 inHg , 1020.7 hPa
Clouds: Clear
Visibility: 10 miles , 16 km
2021/04/19 04:55 KPLU 190455Z AUTO 00000KT 10SM CLR 13/M02 A3014 RMK AO2
KTCM - Tacoma/Mc Chord, Washington, USA
Distance from station: SW 15mi, 24km
Updated: Sun, 18-Apr-2021 9:58pm PDT
Clear
Clear
 Wind from calm
Wind: Calm
Temperature: 57°F , 14°C
Dew Point: 32°F , 0°C
Humidity: 39%
Barometer: 30.13 inHg , 1020.3 hPa
Clouds: Clear
Visibility: 10 miles , 16 km
2021/04/19 04:58 KTCM 190458Z AUTO 00000KT 10SM CLR 14/M00 A3013 RMK AO2 SLP206 T01411004 $
 
KSEA - Seattle/Metro, Washington, USA
Distance from station: NNW 16mi, 25km
Updated: Sun, 18-Apr-2021 9:53pm PDT
Few Clouds
Few Clouds
 Wind from SSW
Wind: SSW 8 mph , 13 km/h
Temperature: 61°F , 16°C
Dew Point: 36°F , 2°C
Humidity: 39%
Barometer: 30.12 inHg , 1020 hPa
Clouds: Few Clouds
Visibility: 10 miles , 16 km
Cloud details: Few Clouds 20000 ft
2021/04/19 04:53 KSEA 190453Z 20007KT 10SM FEW200 16/02 A3012 RMK AO2 SLP204 T01610022
KRNT - Renton, Washington, USA
Distance from station: N 18mi, 29km
Updated: Sun, 18-Apr-2021 9:53pm PDT
Clear
Clear
 Wind from S
Wind: S 7 mph , 11 km/h
Temperature: 64°F , 18°C
Dew Point: 36°F , 2°C
Humidity: 34%
Barometer: 30.10 inHg , 1019.3 hPa
Clouds: Clear
Visibility: 10 miles , 16 km
2021/04/19 04:53 KRNT 190453Z AUTO 19006KT 10SM CLR 18/02 A3010 RMK AO2 SLP198 T01780022
 
KTIW - Tacoma, Washington, USA
Distance from station: W 18mi, 29km
Updated: Sun, 18-Apr-2021 9:53pm PDT
Clear
Clear
 Wind from SSW
Wind: SSW 10 mph , 17 km/h
Temperature: 55°F , 13°C
Dew Point: 32°F , 0°C
Humidity: 41%
Barometer: 30.13 inHg , 1020.3 hPa
Clouds: Clear
Visibility: 10 miles , 16 km
2021/04/19 04:53 KTIW 190453Z AUTO 21009KT 10SM CLR 13/00 A3013 RMK AO2 SLP201 T01330000
KGRF - Fort Lewis/Gray, Washington, USA
Distance from station: SW 21mi, 33km
Updated: Sun, 18-Apr-2021 9:58pm PDT
Clear
Clear
 Wind from S
Wind: S 6 mph , 9 km/h
Temperature: 57°F , 14°C
Dew Point: 30°F , -1°C
Humidity: 36%
Barometer: 30.12 inHg , 1020 hPa
Clouds: Clear
Visibility: 10 miles , 16 km
2021/04/19 04:58 KGRF 190458Z AUTO 17005KT 10SM CLR 14/M01 A3012 RMK AO2 SLP203 T01351009 $
 
KBFI - Seattle/Boeing, Washington, USA
Distance from station: NNW 22mi, 36km
Updated: Sun, 18-Apr-2021 9:53pm PDT
Clear
Clear
 Wind from SW
Wind: SW 3 mph , 6 km/h
Temperature: 63°F , 17°C
Dew Point: 37°F , 3°C
Humidity: 39%
Barometer: 30.10 inHg , 1019.3 hPa
Clouds: Clear
Visibility: 10 miles , 16 km
2021/04/19 04:53 KBFI 190453Z 23003KT 10SM CLR 17/03 A3010 RMK AO2 SLP194 T01720028
KPWT - Bremerton Ntnl, Washington, USA
Distance from station: NW 31mi, 50km
Updated: Sun, 18-Apr-2021 9:56pm PDT
Clear
Clear
 Wind from calm
Wind: Calm
Temperature: 57°F , 14°C
Dew Point: 37°F , 3°C
Humidity: 48%
Barometer: 30.11 inHg , 1019.6 hPa
Clouds: Clear
Visibility: 10 miles , 16 km
2021/04/19 04:56 KPWT 190456Z AUTO 00000KT 10SM CLR 14/03 A3011 RMK AO2 SLP199 T01390028
 
KOLM - Olympia, Washington, USA
Distance from station: WSW 38mi, 60km
Updated: Sun, 18-Apr-2021 9:54pm PDT
Clear
Clear
 Wind from S
Wind: S 10 mph , 17 km/h
Temperature: 54°F , 12°C
Dew Point: 34°F , 1°C
Humidity: 47%
Barometer: 30.12 inHg , 1020 hPa
Clouds: Clear
Visibility: 10 miles , 16 km
2021/04/19 04:54 KOLM 190454Z AUTO 19009KT 10SM CLR 12/01 A3012 RMK AO2 SLP201 T01170011
KSMP - Stampede Pass, Washington, USA
Distance from station: E 41mi, 66km
Updated: Sun, 18-Apr-2021 9:56pm PDT
Clear
Clear
 Wind from varies
Wind: varies 5 mph , 7 km/h
Temperature: 52°F , 11°C
Dew Point: 27°F , -3°C
Humidity: 38%
Barometer: 30.16 inHg , 1021.3 hPa
Clouds: Clear
Visibility: 10 miles , 16 km
2021/04/19 04:56 KSMP 190456Z AUTO VRB04KT 10SM CLR 11/M03 A3016 RMK AO2 SLP201 T01061033
 
KSHN - Shelton, Washington, USA
Distance from station: W 43mi, 70km
Updated: Sun, 18-Apr-2021 9:53pm PDT
Clear
Clear
 Wind from WSW
Wind: WSW 13 mph , 20 km/h, Gust: 22 mph , 35 km/h
Temperature: 54°F , 12°C
Dew Point: 43°F , 6°C
Humidity: 67%
Barometer: 30.09 inHg , 1019 hPa
Clouds: Clear
Visibility: 10 miles , 16 km
2021/04/19 04:53 KSHN 190453Z AUTO 25011G19KT 10SM CLR 12/06 A3009 RMK AO2 SLP190 T01220056
KPAE - Everett, Washington, USA
Distance from station: N 47mi, 76km
Updated: Sun, 18-Apr-2021 9:53pm PDT
Clear
Clear
 Wind from N
Wind: N 8 mph , 13 km/h
Temperature: 59°F , 15°C
Dew Point: 36°F , 2°C
Humidity: 42%
Barometer: 30.10 inHg , 1019.3 hPa
Clouds: Clear
Visibility: 10 miles , 16 km
2021/04/19 04:53 KPAE 190453Z AUTO 36007KT 10SM CLR 15/02 A3010 RMK AO2 SLP193 T01500017